Time;durP1;ratioP1;P1;durP2;ratioP2;P2;SDS_P1;SDS_P2;PMS_P1;PMS_P2;Temp;Humidity;BMP_temperature;BMP_pressure;BME280_temperature;BME280_humidity;BME280_pressure;Samples;Min_cycle;Max_cycle;Signal;HPM_P1;HPM_P2
2022/08/08 00:01:45;;;;;;;5.97;4.60;;;;;;;;;;5114450;28;20111;-77
2022/08/08 00:04:30;;;;;;;6.90;4.35;;;;;;;;;;5115413;28;20027;-77
2022/08/08 00:07:14;;;;;;;8.85;4.22;;;;;;;;;;5115744;28;20027;-77
2022/08/08 00:09:46;;;;;;;10.23;4.20;;;;;;;;;;5115590;28;20115;-77
2022/08/08 00:12:14;;;;;;;8.00;4.50;;;;;;;;;;5115567;28;20023;-77
2022/08/08 00:14:40;;;;;;;5.75;3.88;;;;;;;;;;5115305;28;20034;-77
2022/08/08 00:17:11;;;;;;;7.60;4.10;;;;;;;;;;5115077;28;20039;-78
2022/08/08 00:19:52;;;;;;;7.13;3.70;;;;;;;;;;5115496;28;20083;-78
2022/08/08 00:22:21;;;;;;;8.80;4.30;;;;;;;;;;5115360;28;20179;-78
2022/08/08 00:24:50;;;;;;;5.50;3.55;;;;;;;;;;5115386;28;20035;-78
2022/08/08 00:27:18;;;;;;;6.68;3.75;;;;;;;;;;5115291;28;20105;-78
2022/08/08 00:29:56;;;;;;;5.85;3.40;;;;;;;;;;5115340;28;20023;-78
2022/08/08 00:32:46;;;;;;;8.23;3.50;;;;;;;;;;5115259;28;20031;-77
2022/08/08 00:35:30;;;;;;;8.07;3.53;;;;;;;;;;5104454;28;20334;-78
2022/08/08 00:38:15;;;;;;;14.60;3.72;;;;;;;;;;5115195;28;20027;-77
2022/08/08 00:40:50;;;;;;;9.13;4.35;;;;;;;;;;5115251;28;20031;-77
2022/08/08 00:43:35;;;;;;;9.13;4.05;;;;;;;;;;5115118;28;20047;-78
2022/08/08 00:46:19;;;;;;;6.00;3.72;;;;;;;;;;5115057;28;20024;-78
2022/08/08 00:49:13;;;;;;;5.18;3.55;;;;;;;;;;5114874;28;20034;-78
2022/08/08 00:51:39;;;;;;;8.27;3.53;;;;;;;;;;5114896;28;20071;-77
2022/08/08 00:54:24;;;;;;;8.32;3.63;;;;;;;;;;5114753;28;20086;-77
2022/08/08 00:57:05;;;;;;;6.82;3.67;;;;;;;;;;5114749;28;20056;-77
2022/08/08 00:59:54;;;;;;;4.60;3.17;;;;;;;;;;5114689;28;20381;-77
2022/08/08 01:02:35;;;;;;;10.75;4.25;;;;;;;;;;5114760;28;20019;-77
2022/08/08 01:05:27;;;;;;;8.18;3.42;;;;;;;;;;5114701;28;20032;-77
2022/08/08 01:08:03;;;;;;;6.93;3.38;;;;;;;;;;5114782;28;20027;-77
2022/08/08 01:10:42;;;;;;;10.43;4.53;;;;;;;;;;5114650;28;20028;-78
2022/08/08 01:13:28;;;;;;;6.85;3.70;;;;;;;;;;5114697;28;20237;-77
2022/08/08 01:16:12;;;;;;;8.65;4.13;;;;;;;;;;5114481;28;20080;-77
2022/08/08 01:18:50;;;;;;;6.25;3.85;;;;;;;;;;5093818;28;20024;-78
2022/08/08 01:21:35;;;;;;;10.63;4.15;;;;;;;;;;5092551;28;20106;-77
2022/08/08 01:24:16;;;;;;;7.45;4.15;;;;;;;;;;5094011;28;20024;-77
2022/08/08 01:26:42;;;;;;;5.47;3.60;;;;;;;;;;5094001;28;20017;-77
2022/08/08 01:29:27;;;;;;;9.82;4.00;;;;;;;;;;5093917;28;20029;-77
2022/08/08 01:32:11;;;;;;;6.53;4.20;;;;;;;;;;5093777;28;20031;-78
2022/08/08 01:34:49;;;;;;;8.02;4.10;;;;;;;;;;5093722;28;20102;-77
2022/08/08 01:37:26;;;;;;;11.25;4.03;;;;;;;;;;5093476;28;20076;-78
2022/08/08 01:39:58;;;;;;;11.75;4.20;;;;;;;;;;5114180;28;20016;-77
2022/08/08 01:42:33;;;;;;;6.20;4.00;;;;;;;;;;5113916;28;20031;-77
2022/08/08 01:45:02;;;;;;;11.10;4.32;;;;;;;;;;5113853;28;20438;-77
2022/08/08 01:47:38;;;;;;;13.48;4.13;;;;;;;;;;5113805;28;20027;-77
2022/08/08 01:50:19;;;;;;;9.38;4.45;;;;;;;;;;5113687;28;20446;-77
2022/08/08 01:53:04;;;;;;;8.38;4.88;;;;;;;;;;5113650;28;20419;-77
2022/08/08 01:55:33;;;;;;;8.25;4.97;;;;;;;;;;5113646;28;20016;-77
2022/08/08 01:58:21;;;;;;;11.93;5.75;;;;;;;;;;5113597;28;20051;-78
2022/08/08 02:00:56;;;;;;;8.30;4.45;;;;;;;;;;5113522;28;20144;-78
2022/08/08 02:03:31;;;;;;;7.32;5.13;;;;;;;;;;5113417;28;20020;-77
2022/08/08 02:06:08;;;;;;;10.32;4.90;;;;;;;;;;5113218;28;20057;-77
2022/08/08 02:08:37;;;;;;;9.32;5.20;;;;;;;;;;5113507;28;20106;-77
2022/08/08 02:11:27;;;;;;;6.22;4.43;;;;;;;;;;5113273;28;20019;-77
2022/08/08 02:14:05;;;;;;;8.68;5.45;;;;;;;;;;5102421;28;20032;-77
2022/08/08 02:16:47;;;;;;;9.48;4.95;;;;;;;;;;5113116;28;20426;-77
2022/08/08 02:19:14;;;;;;;9.45;5.18;;;;;;;;;;5113246;28;20030;-77
2022/08/08 02:24:31;;;;;;;9.20;5.53;;;;;;;;;;5099855;28;20043;-77
2022/08/08 02:27:16;;;;;;;9.95;5.97;;;;;;;;;;5092599;28;20039;-77
2022/08/08 02:29:53;;;;;;;9.05;5.85;;;;;;;;;;5074251;28;20054;-77
2022/08/08 02:32:26;;;;;;;8.30;6.07;;;;;;;;;;5092315;28;20028;-77
2022/08/08 02:35:10;;;;;;;9.30;6.07;;;;;;;;;;5092107;28;20032;-77
2022/08/08 02:37:55;;;;;;;8.90;5.03;;;;;;;;;;5092640;28;20020;-77
2022/08/08 02:40:39;;;;;;;9.63;5.63;;;;;;;;;;5092606;28;20091;-77
2022/08/08 02:43:08;;;;;;;10.95;5.65;;;;;;;;;;5092393;28;20032;-77
2022/08/08 02:45:48;;;;;;;11.35;5.70;;;;;;;;;;5092482;28;20061;-78
2022/08/08 02:48:26;;;;;;;10.18;6.20;;;;;;;;;;5092454;28;20042;-77
2022/08/08 02:51:11;;;;;;;14.10;6.07;;;;;;;;;;5092759;28;20028;-77
2022/08/08 02:53:37;;;;;;;9.98;6.03;;;;;;;;;;5092255;28;20079;-77
2022/08/08 02:56:29;;;;;;;10.32;6.43;;;;;;;;;;5100090;28;20089;-77
2022/08/08 02:59:01;;;;;;;9.70;6.03;;;;;;;;;;5081283;28;20046;-77
2022/08/08 03:01:30;;;;;;;12.35;6.00;;;;;;;;;;5112638;28;20043;-77
2022/08/08 03:04:02;;;;;;;10.80;6.25;;;;;;;;;;5112353;28;20020;-77
2022/08/08 03:06:47;;;;;;;13.27;6.88;;;;;;;;;;5112169;28;20122;-77
2022/08/08 03:09:32;;;;;;;8.65;6.18;;;;;;;;;;5112393;28;20023;-77
2022/08/08 03:12:13;;;;;;;10.48;6.60;;;;;;;;;;5112238;28;20485;-78
2022/08/08 03:14:48;;;;;;;8.02;5.63;;;;;;;;;;5112202;28;20078;-77
2022/08/08 03:17:20;;;;;;;9.52;6.03;;;;;;;;;;5111984;28;20469;-77
2022/08/08 03:20:09;;;;;;;8.25;6.05;;;;;;;;;;5112087;28;20027;-77
2022/08/08 03:22:45;;;;;;;10.45;6.07;;;;;;;;;;5093826;28;20024;-78
2022/08/08 03:25:13;;;;;;;10.00;6.03;;;;;;;;;;5111410;28;20377;-77
2022/08/08 03:27:51;;;;;;;9.65;5.70;;;;;;;;;;5112027;28;20486;-77
2022/08/08 03:30:19;;;;;;;8.35;5.63;;;;;;;;;;5093696;28;20034;-77
2022/08/08 03:35:48;;;;;;;9.20;5.90;;;;;;;;;;5028971;28;20034;-77
2022/08/08 03:38:14;;;;;;;10.18;5.45;;;;;;;;;;5086265;28;20389;-77
2022/08/08 03:40:41;;;;;;;9.40;5.85;;;;;;;;;;5073415;28;20028;-77
2022/08/08 03:43:09;;;;;;;10.40;6.18;;;;;;;;;;5091419;28;20044;-78
2022/08/08 03:45:36;;;;;;;9.65;6.13;;;;;;;;;;5091532;28;20051;-77
2022/08/08 03:48:07;;;;;;;12.73;6.00;;;;;;;;;;5073251;28;20384;-77
2022/08/08 03:50:34;;;;;;;7.93;5.50;;;;;;;;;;5091810;28;20020;-77
2022/08/08 03:53:07;;;;;;;9.20;5.55;;;;;;;;;;5091498;28;20052;-77
2022/08/08 03:55:37;;;;;;;9.45;6.13;;;;;;;;;;5091449;28;20020;-78
2022/08/08 03:58:03;;;;;;;9.23;6.13;;;;;;;;;;5091259;28;20381;-77
2022/08/08 04:00:29;;;;;;;10.48;6.22;;;;;;;;;;5091563;28;20102;-77
2022/08/08 04:03:05;;;;;;;13.00;6.03;;;;;;;;;;5091433;28;20035;-77
2022/08/08 04:05:33;;;;;;;12.80;6.20;;;;;;;;;;5091230;28;20020;-77
2022/08/08 04:08:00;;;;;;;10.27;6.07;;;;;;;;;;5091325;28;20016;-77
2022/08/08 04:10:26;;;;;;;12.13;5.78;;;;;;;;;;5091496;28;20028;-77
2022/08/08 04:12:54;;;;;;;15.85;6.13;;;;;;;;;;5091098;28;20139;-77
2022/08/08 04:15:20;;;;;;;8.68;6.00;;;;;;;;;;5091201;28;20047;-77
2022/08/08 04:17:46;;;;;;;12.55;6.50;;;;;;;;;;5099697;28;20220;-77
2022/08/08 04:20:12;;;;;;;10.35;6.43;;;;;;;;;;5111600;28;20039;-77
2022/08/08 04:22:38;;;;;;;10.75;6.50;;;;;;;;;;5111289;28;20020;-78
2022/08/08 04:25:05;;;;;;;8.25;6.55;;;;;;;;;;5111521;28;20062;-77
2022/08/08 04:27:31;;;;;;;9.85;6.60;;;;;;;;;;5111458;28;20039;-77
2022/08/08 04:29:57;;;;;;;10.80;6.75;;;;;;;;;;5111583;28;20358;-77
2022/08/08 04:32:24;;;;;;;10.98;6.25;;;;;;;;;;5111430;28;20388;-77
2022/08/08 04:34:50;;;;;;;10.32;5.97;;;;;;;;;;5111758;28;20034;-78
2022/08/08 04:37:16;;;;;;;8.32;5.55;;;;;;;;;;5115222;28;20031;-77
2022/08/08 04:39:42;;;;;;;15.63;6.90;;;;;;;;;;5115268;28;20024;-77
2022/08/08 04:42:08;;;;;;;12.40;6.30;;;;;;;;;;5115098;28;20020;-77
2022/08/08 04:44:34;;;;;;;9.73;6.65;;;;;;;;;;5114663;28;20107;-77
2022/08/08 04:47:00;;;;;;;9.93;6.43;;;;;;;;;;5114736;28;20024;-78
2022/08/08 04:49:26;;;;;;;15.63;6.25;;;;;;;;;;5115341;28;20019;-78
2022/08/08 04:51:52;;;;;;;14.38;6.60;;;;;;;;;;5115002;28;20135;-78
2022/08/08 04:54:18;;;;;;;15.75;7.13;;;;;;;;;;5114836;28;20129;-78
2022/08/08 04:56:44;;;;;;;16.58;8.10;;;;;;;;;;5114773;28;20430;-78
2022/08/08 04:59:10;;;;;;;13.65;7.35;;;;;;;;;;5114725;28;20099;-79
2022/08/08 05:01:36;;;;;;;17.02;7.78;;;;;;;;;;5111921;28;20024;-78
2022/08/08 05:04:02;;;;;;;15.43;7.95;;;;;;;;;;5114911;28;20054;-78
2022/08/08 05:06:29;;;;;;;12.35;6.78;;;;;;;;;;5114470;28;20031;-78
2022/08/08 05:08:55;;;;;;;10.55;7.78;;;;;;;;;;5114672;28;20187;-78
2022/08/08 05:11:21;;;;;;;15.15;7.32;;;;;;;;;;5114810;28;20492;-78
2022/08/08 05:13:47;;;;;;;12.23;6.75;;;;;;;;;;5114541;28;20110;-78
2022/08/08 05:16:13;;;;;;;11.00;6.32;;;;;;;;;;5114243;28;20015;-78
2022/08/08 05:18:39;;;;;;;14.85;7.40;;;;;;;;;;5114136;28;20369;-78
2022/08/08 05:21:07;;;;;;;44.40;17.00;;;;;;;;;;5114225;28;20020;-78
2022/08/08 05:23:34;;;;;;;40.15;15.90;;;;;;;;;;5113855;28;20346;-79
2022/08/08 05:26:00;;;;;;;33.83;12.02;;;;;;;;;;5113950;28;20114;-79
2022/08/08 05:28:26;;;;;;;29.30;12.45;;;;;;;;;;5108444;28;20066;-79
2022/08/08 05:30:52;;;;;;;31.33;8.27;;;;;;;;;;5112371;28;20024;-79
2022/08/08 05:33:18;;;;;;;13.35;6.70;;;;;;;;;;5111151;28;20038;-79
2022/08/08 05:35:45;;;;;;;13.25;6.75;;;;;;;;;;5114282;28;20027;-79
2022/08/08 05:38:13;;;;;;;20.67;8.50;;;;;;;;;;5092713;28;20039;-79
2022/08/08 05:40:45;;;;;;;17.63;6.80;;;;;;;;;;5094156;28;20016;-79
2022/08/08 05:43:14;;;;;;;17.00;6.93;;;;;;;;;;5094024;28;20021;-79
2022/08/08 05:45:40;;;;;;;10.32;6.75;;;;;;;;;;5094094;28;20043;-79
2022/08/08 05:48:06;;;;;;;10.02;5.78;;;;;;;;;;5093038;28;20020;-78
2022/08/08 05:50:33;;;;;;;8.27;5.47;;;;;;;;;;5094529;28;20030;-79
2022/08/08 05:52:59;;;;;;;15.18;5.72;;;;;;;;;;5093738;28;20478;-79
2022/08/08 05:55:25;;;;;;;8.43;5.75;;;;;;;;;;5093721;28;20081;-79
2022/08/08 05:57:52;;;;;;;9.10;5.28;;;;;;;;;;5113875;28;20577;-79
2022/08/08 06:00:18;;;;;;;9.45;5.72;;;;;;;;;;5114022;28;20112;-79
2022/08/08 06:05:33;;;;;;;11.98;5.78;;;;;;;;;;5112338;28;20378;-78
2022/08/08 06:08:02;;;;;;;6.40;4.97;;;;;;;;;;5113820;28;20024;-79
2022/08/08 06:10:31;;;;;;;9.93;5.63;;;;;;;;;;5093862;28;20093;-78
2022/08/08 06:12:57;;;;;;;11.15;5.25;;;;;;;;;;5093634;28;20438;-79
2022/08/08 06:15:23;;;;;;;6.80;4.57;;;;;;;;;;5091632;28;20119;-78
2022/08/08 06:17:49;;;;;;;8.38;4.60;;;;;;;;;;5092870;28;20062;-78
2022/08/08 06:20:15;;;;;;;10.32;4.82;;;;;;;;;;5093372;28;20346;-78
2022/08/08 06:22:41;;;;;;;9.85;4.38;;;;;;;;;;5093535;28;20020;-78
2022/08/08 06:25:08;;;;;;;5.95;3.97;;;;;;;;;;5099085;28;20019;-79
2022/08/08 06:27:37;;;;;;;7.88;4.78;;;;;;;;;;5113462;28;20143;-77
2022/08/08 06:30:07;;;;;;;7.68;3.75;;;;;;;;;;5113395;28;20028;-78
2022/08/08 06:32:39;;;;;;;7.35;3.90;;;;;;;;;;5092567;28;20027;-79
2022/08/08 06:35:08;;;;;;;7.77;3.60;;;;;;;;;;5112586;28;20116;-79
2022/08/08 06:37:36;;;;;;;9.90;4.07;;;;;;;;;;5094779;28;20106;-80
2022/08/08 06:40:03;;;;;;;10.70;3.60;;;;;;;;;;5094991;28;20659;-79
2022/08/08 06:42:33;;;;;;;8.95;3.85;;;;;;;;;;5112824;28;20798;-79
2022/08/08 06:44:59;;;;;;;7.38;3.75;;;;;;;;;;5113147;28;20473;-79
2022/08/08 06:47:25;;;;;;;4.70;3.15;;;;;;;;;;5112762;28;20027;-79
2022/08/08 06:49:52;;;;;;;5.70;2.50;;;;;;;;;;5112950;27;20019;-79
2022/08/08 06:52:18;;;;;;;6.65;3.15;;;;;;;;;;5111924;28;20043;-79
2022/08/08 06:54:44;;;;;;;5.60;2.42;;;;;;;;;;5112701;28;20327;-79
2022/08/08 06:57:11;;;;;;;8.45;2.78;;;;;;;;;;5113010;28;20035;-79
2022/08/08 06:59:37;;;;;;;7.30;2.55;;;;;;;;;;5112884;28;20031;-79
2022/08/08 07:02:04;;;;;;;4.40;1.95;;;;;;;;;;5112715;28;20024;-79
2022/08/08 07:04:30;;;;;;;3.63;1.80;;;;;;;;;;5112737;28;20034;-79
2022/08/08 07:06:59;;;;;;;6.35;1.85;;;;;;;;;;5110236;28;20032;-79
2022/08/08 07:09:37;;;;;;;5.63;1.98;;;;;;;;;;5112623;28;20043;-79
2022/08/08 07:12:06;;;;;;;10.55;1.98;;;;;;;;;;5112465;28;20023;-79
2022/08/08 07:14:51;;;;;;;7.05;2.08;;;;;;;;;;5112482;28;20015;-79
2022/08/08 07:17:17;;;;;;;5.25;1.92;;;;;;;;;;5112220;28;20020;-82
2022/08/08 07:19:46;;;;;;;5.97;2.08;;;;;;;;;;5113313;28;20031;-82
2022/08/08 07:22:16;;;;;;;6.10;2.30;;;;;;;;;;5113535;28;20019;-80
2022/08/08 07:24:43;;;;;;;4.20;2.40;;;;;;;;;;5112955;28;20035;-79
2022/08/08 07:27:14;;;;;;;9.18;2.10;;;;;;;;;;5112182;28;20035;-79
2022/08/08 07:29:40;;;;;;;5.43;1.80;;;;;;;;;;5112409;28;20038;-79
2022/08/08 07:32:07;;;;;;;7.30;2.13;;;;;;;;;;5112424;28;20019;-79
2022/08/08 07:34:33;;;;;;;5.63;2.20;;;;;;;;;;5112160;28;20111;-79
2022/08/08 07:37:01;;;;;;;7.60;2.00;;;;;;;;;;5112259;28;20334;-78
2022/08/08 07:39:29;;;;;;;8.27;2.15;;;;;;;;;;5111902;28;20469;-79
2022/08/08 07:41:55;;;;;;;3.75;1.60;;;;;;;;;;5111632;28;20392;-79
2022/08/08 07:44:22;;;;;;;5.25;2.28;;;;;;;;;;5112251;28;20020;-79
2022/08/08 07:46:48;;;;;;;8.00;2.10;;;;;;;;;;5111956;28;20032;-79
2022/08/08 07:49:14;;;;;;;10.77;2.00;;;;;;;;;;5111178;28;20110;-79
2022/08/08 07:51:41;;;;;;;5.35;1.67;;;;;;;;;;5111636;28;20043;-79
2022/08/08 07:54:11;;;;;;;5.32;2.10;;;;;;;;;;5111917;28;20035;-79
2022/08/08 07:56:49;;;;;;;7.38;2.17;;;;;;;;;;5111743;28;20132;-78
2022/08/08 07:59:15;;;;;;;4.47;1.60;;;;;;;;;;5111790;28;20030;-79
2022/08/08 08:01:45;;;;;;;7.90;2.05;;;;;;;;;;5111872;28;20090;-79
2022/08/08 08:04:14;;;;;;;5.63;1.60;;;;;;;;;;5111849;28;20027;-79
2022/08/08 08:06:40;;;;;;;7.38;1.75;;;;;;;;;;5111820;28;20475;-79
2022/08/08 08:09:17;;;;;;;7.18;1.70;;;;;;;;;;5111980;28;20027;-79
2022/08/08 08:11:46;;;;;;;5.93;1.80;;;;;;;;;;5115540;28;20028;-79
2022/08/08 08:14:16;;;;;;;2.70;1.35;;;;;;;;;;5115945;28;20445;-79
2022/08/08 08:16:46;;;;;;;7.35;1.80;;;;;;;;;;5115921;28;20365;-79
2022/08/08 08:19:12;;;;;;;4.35;1.45;;;;;;;;;;5115708;28;20104;-79
2022/08/08 08:21:40;;;;;;;4.35;1.60;;;;;;;;;;5115847;28;20114;-79
2022/08/08 08:24:06;;;;;;;5.25;1.55;;;;;;;;;;5115510;28;20036;-79
2022/08/08 08:26:32;;;;;;;4.97;1.20;;;;;;;;;;5115494;28;20028;-80
2022/08/08 08:28:59;;;;;;;2.78;0.90;;;;;;;;;;5115577;28;20039;-80
2022/08/08 08:31:25;;;;;;;3.88;1.50;;;;;;;;;;5115349;28;20023;-79
2022/08/08 08:33:51;;;;;;;3.13;1.00;;;;;;;;;;5114955;28;20376;-78
2022/08/08 08:36:17;;;;;;;7.05;1.10;;;;;;;;;;5114791;28;20054;-77
2022/08/08 08:38:43;;;;;;;6.03;1.27;;;;;;;;;;5114978;28;20028;-79
2022/08/08 08:41:13;;;;;;;3.58;0.90;;;;;;;;;;5096730;28;20092;-79
2022/08/08 08:43:39;;;;;;;7.13;0.90;;;;;;;;;;5114766;28;20024;-79
2022/08/08 08:46:09;;;;;;;4.72;1.17;;;;;;;;;;5115154;28;20029;-79
2022/08/08 08:48:35;;;;;;;2.08;0.90;;;;;;;;;;5111899;28;20016;-78
2022/08/08 08:51:02;;;;;;;3.67;1.05;;;;;;;;;;5114172;28;20023;-79
2022/08/08 08:53:31;;;;;;;5.57;1.05;;;;;;;;;;5114452;28;20036;-78
2022/08/08 08:55:57;;;;;;;2.72;0.85;;;;;;;;;;5114822;28;20484;-79
2022/08/08 08:58:26;;;;;;;3.42;0.88;;;;;;;;;;5114836;28;20034;-80
2022/08/08 09:00:53;;;;;;;5.45;1.35;;;;;;;;;;5114933;28;20072;-79
2022/08/08 09:03:20;;;;;;;4.28;1.10;;;;;;;;;;5114897;28;20146;-79
2022/08/08 09:05:46;;;;;;;5.10;0.95;;;;;;;;;;5114956;28;20425;-79
2022/08/08 09:08:15;;;;;;;5.07;1.00;;;;;;;;;;5114753;28;20058;-79
2022/08/08 09:10:41;;;;;;;4.50;1.20;;;;;;;;;;5114995;28;20511;-78
2022/08/08 09:13:08;;;;;;;11.80;0.95;;;;;;;;;;5105854;28;20382;-79
2022/08/08 09:15:34;;;;;;;3.15;0.80;;;;;;;;;;5112164;28;20149;-79
2022/08/08 09:18:00;;;;;;;9.27;1.00;;;;;;;;;;5112151;28;20073;-79
2022/08/08 09:20:27;;;;;;;2.95;0.80;;;;;;;;;;5111358;28;20038;-78
2022/08/08 09:22:54;;;;;;;5.30;0.82;;;;;;;;;;5112845;28;20095;-79
2022/08/08 09:25:20;;;;;;;3.53;1.17;;;;;;;;;;5111161;28;20531;-79
2022/08/08 09:27:46;;;;;;;3.97;0.80;;;;;;;;;;5114532;28;20121;-80
2022/08/08 09:30:13;;;;;;;2.60;0.77;;;;;;;;;;5114670;28;20038;-80
2022/08/08 09:32:46;;;;;;;8.48;1.45;;;;;;;;;;5113746;28;20024;-79
2022/08/08 09:35:14;;;;;;;9.32;0.98;;;;;;;;;;5112876;28;20024;-79
2022/08/08 09:37:48;;;;;;;3.17;0.98;;;;;;;;;;5112990;28;20020;-79
2022/08/08 09:40:15;;;;;;;1.83;0.60;;;;;;;;;;5113721;28;20027;-79
2022/08/08 09:42:46;;;;;;;2.35;0.70;;;;;;;;;;5113964;28;20027;-79
2022/08/08 09:45:12;;;;;;;3.40;0.90;;;;;;;;;;5113860;28;20023;-80
2022/08/08 09:47:39;;;;;;;1.92;0.90;;;;;;;;;;5113569;28;20020;-80
2022/08/08 09:50:07;;;;;;;3.10;0.70;;;;;;;;;;5113761;28;20047;-80
2022/08/08 09:52:33;;;;;;;3.25;0.88;;;;;;;;;;5113614;28;20489;-79
2022/08/08 09:55:00;;;;;;;2.63;0.80;;;;;;;;;;5095510;28;20062;-80
2022/08/08 09:57:36;;;;;;;4.88;0.85;;;;;;;;;;5114407;28;20188;-80
2022/08/08 10:00:05;;;;;;;1.55;0.50;;;;;;;;;;5114776;28;20016;-81
2022/08/08 10:02:35;;;;;;;2.03;0.60;;;;;;;;;;5115149;28;20026;-81
2022/08/08 10:05:08;;;;;;;4.03;0.95;;;;;;;;;;5114251;28;20027;-79
2022/08/08 10:07:35;;;;;;;5.63;0.88;;;;;;;;;;5108579;28;20027;-81
2022/08/08 10:10:01;;;;;;;3.00;0.90;;;;;;;;;;5113469;28;20046;-81
2022/08/08 10:12:37;;;;;;;4.35;0.77;;;;;;;;;;5094629;28;20110;-80
2022/08/08 10:15:05;;;;;;;1.95;0.73;;;;;;;;;;5094781;28;20024;-80
2022/08/08 10:17:32;;;;;;;5.90;1.10;;;;;;;;;;5126525;27;20042;-80
2022/08/08 10:19:59;;;;;;;3.25;0.82;;;;;;;;;;5113539;28;20381;-79
2022/08/08 10:22:26;;;;;;;4.32;0.70;;;;;;;;;;5113706;28;20675;-79
2022/08/08 10:24:54;;;;;;;1.85;0.60;;;;;;;;;;5113284;28;20051;-80
2022/08/08 10:27:24;;;;;;;4.65;0.82;;;;;;;;;;5113409;28;20440;-80
2022/08/08 10:30:09;;;;;;;3.47;0.75;;;;;;;;;;5094885;28;20123;-79
2022/08/08 10:32:40;;;;;;;2.58;0.70;;;;;;;;;;5113236;28;20506;-79
2022/08/08 10:35:07;;;;;;;3.17;0.80;;;;;;;;;;5094487;28;20035;-80
2022/08/08 10:37:34;;;;;;;2.70;0.73;;;;;;;;;;5113351;28;20076;-79
2022/08/08 10:40:01;;;;;;;5.25;1.15;;;;;;;;;;5110557;28;20035;-78
2022/08/08 10:42:35;;;;;;;3.70;0.80;;;;;;;;;;5113250;28;20038;-80
2022/08/08 10:45:06;;;;;;;2.97;1.23;;;;;;;;;;5094824;28;20385;-78
2022/08/08 10:47:32;;;;;;;2.35;0.80;;;;;;;;;;5110578;28;20015;-80
2022/08/08 10:50:00;;;;;;;4.88;1.10;;;;;;;;;;5112923;28;20023;-80
2022/08/08 10:52:30;;;;;;;3.08;1.00;;;;;;;;;;5112895;28;20461;-80
2022/08/08 10:54:57;;;;;;;6.88;0.95;;;;;;;;;;5110762;28;20473;-78
2022/08/08 10:57:23;;;;;;;2.78;1.00;;;;;;;;;;5094113;28;20019;-80
2022/08/08 10:59:56;;;;;;;3.05;1.10;;;;;;;;;;5112408;28;20019;-79
2022/08/08 11:02:27;;;;;;;3.47;1.10;;;;;;;;;;5111717;28;20024;-80
2022/08/08 11:04:53;;;;;;;2.50;1.00;;;;;;;;;;5112209;28;20027;-80
2022/08/08 11:07:29;;;;;;;4.88;1.10;;;;;;;;;;5112490;28;20023;-81
2022/08/08 11:09:55;;;;;;;1.95;0.93;;;;;;;;;;5112461;28;20023;-79
2022/08/08 11:12:21;;;;;;;2.70;0.95;;;;;;;;;;5112227;28;20138;-80
2022/08/08 11:14:55;;;;;;;6.05;1.05;;;;;;;;;;5112726;28;20106;-80
2022/08/08 11:17:23;;;;;;;5.00;0.98;;;;;;;;;;5110660;28;20012;-80
2022/08/08 11:19:51;;;;;;;2.60;1.10;;;;;;;;;;5113028;28;20024;-80
2022/08/08 11:22:19;;;;;;;2.95;1.10;;;;;;;;;;5113020;28;20072;-80
2022/08/08 11:24:46;;;;;;;6.05;0.90;;;;;;;;;;5095176;28;20027;-79
2022/08/08 11:27:13;;;;;;;3.50;0.82;;;;;;;;;;5110334;28;20020;-78
2022/08/08 11:29:41;;;;;;;2.70;1.10;;;;;;;;;;5118845;28;20067;-79
2022/08/08 11:32:08;;;;;;;4.65;1.00;;;;;;;;;;5105282;28;20023;-78
2022/08/08 11:34:36;;;;;;;2.60;0.80;;;;;;;;;;5121516;28;20454;-79
2022/08/08 11:37:02;;;;;;;3.20;0.90;;;;;;;;;;5114973;28;20024;-78
2022/08/08 11:39:29;;;;;;;7.38;1.00;;;;;;;;;;5098619;28;20415;-78
2022/08/08 11:41:55;;;;;;;3.38;0.95;;;;;;;;;;5112968;28;20100;-78
2022/08/08 11:44:22;;;;;;;4.80;1.13;;;;;;;;;;5112805;28;20020;-79
2022/08/08 11:46:48;;;;;;;4.10;0.95;;;;;;;;;;5097365;28;20056;-78
2022/08/08 11:49:14;;;;;;;2.58;0.63;;;;;;;;;;5116215;28;20065;-78
2022/08/08 11:51:44;;;;;;;2.45;0.70;;;;;;;;;;5117315;28;20031;-79
2022/08/08 11:54:10;;;;;;;4.10;0.80;;;;;;;;;;5098865;28;20106;-80
2022/08/08 11:56:38;;;;;;;5.40;1.08;;;;;;;;;;5093357;28;20040;-79
2022/08/08 11:59:06;;;;;;;2.85;0.90;;;;;;;;;;5103412;28;20023;-78
2022/08/08 12:01:32;;;;;;;5.68;0.80;;;;;;;;;;5117297;28;20027;-79
2022/08/08 12:03:58;;;;;;;5.90;1.08;;;;;;;;;;5117066;28;20051;-83
2022/08/08 12:06:24;;;;;;;4.97;0.88;;;;;;;;;;5117038;28;20024;-78
2022/08/08 12:08:50;;;;;;;6.30;0.85;;;;;;;;;;5117010;28;20042;-77
2022/08/08 12:11:17;;;;;;;6.53;0.70;;;;;;;;;;5116588;28;20036;-77
2022/08/08 12:13:44;;;;;;;2.85;0.70;;;;;;;;;;5116033;28;20453;-77
2022/08/08 12:16:11;;;;;;;1.80;0.70;;;;;;;;;;5115998;28;20423;-77
2022/08/08 12:19:03;;;;;;;2.20;0.57;;;;;;;;;;5116305;28;20051;-76
2022/08/08 12:21:31;;;;;;;3.58;0.90;;;;;;;;;;5112494;28;20039;-77
2022/08/08 12:24:02;;;;;;;5.30;0.75;;;;;;;;;;5115767;28;20027;-77
2022/08/08 12:26:36;;;;;;;2.28;0.75;;;;;;;;;;5116409;28;20024;-76
2022/08/08 12:29:18;;;;;;;3.15;0.85;;;;;;;;;;5115653;28;20477;-75
2022/08/08 12:31:45;;;;;;;6.35;0.70;;;;;;;;;;5115745;28;20023;-77
2022/08/08 12:34:11;;;;;;;4.50;0.77;;;;;;;;;;5115633;28;20020;-76
2022/08/08 12:36:41;;;;;;;2.90;0.80;;;;;;;;;;5114466;28;20118;-77
2022/08/08 12:39:07;;;;;;;1.58;0.63;;;;;;;;;;5116024;28;20499;-77
2022/08/08 12:41:35;;;;;;;6.13;0.80;;;;;;;;;;5116223;28;20156;-77
2022/08/08 12:44:08;;;;;;;3.42;0.70;;;;;;;;;;5115716;28;20046;-77
2022/08/08 12:46:35;;;;;;;3.28;0.85;;;;;;;;;;5115711;28;20016;-77
2022/08/08 12:49:02;;;;;;;2.17;0.60;;;;;;;;;;5115654;28;20201;-77
2022/08/08 12:51:39;;;;;;;1.52;0.50;;;;;;;;;;5115404;28;20072;-77
2022/08/08 12:54:06;;;;;;;2.92;0.68;;;;;;;;;;5115567;28;20098;-77
2022/08/08 12:56:41;;;;;;;4.78;0.70;;;;;;;;;;5115002;28;20040;-77
2022/08/08 12:59:13;;;;;;;5.07;0.85;;;;;;;;;;5115689;28;20055;-77
2022/08/08 13:01:40;;;;;;;5.40;0.77;;;;;;;;;;5115209;28;20388;-77
2022/08/08 13:04:13;;;;;;;3.72;0.75;;;;;;;;;;5115096;28;20023;-77
2022/08/08 13:06:39;;;;;;;4.35;0.68;;;;;;;;;;5115419;28;20076;-77
2022/08/08 13:09:08;;;;;;;1.80;0.60;;;;;;;;;;5114708;28;20028;-79
2022/08/08 13:11:38;;;;;;;4.07;0.60;;;;;;;;;;5115181;28;20070;-79
2022/08/08 13:14:11;;;;;;;5.72;0.80;;;;;;;;;;5114951;28;20023;-78
2022/08/08 13:16:38;;;;;;;3.33;0.70;;;;;;;;;;5112345;28;20016;-78
2022/08/08 13:19:06;;;;;;;2.15;0.60;;;;;;;;;;5115056;28;20035;-78
2022/08/08 13:21:32;;;;;;;2.45;0.50;;;;;;;;;;5114788;28;20022;-78
2022/08/08 13:23:58;;;;;;;2.58;0.47;;;;;;;;;;5114725;28;20024;-78
2022/08/08 13:26:30;;;;;;;2.33;0.68;;;;;;;;;;5115114;28;20015;-78
2022/08/08 13:28:56;;;;;;;1.13;0.60;;;;;;;;;;5114865;28;20019;-78
2022/08/08 13:31:22;;;;;;;1.75;0.60;;;;;;;;;;5114701;28;20035;-78
2022/08/08 13:33:48;;;;;;;4.30;0.80;;;;;;;;;;5111922;28;20466;-79
2022/08/08 13:36:14;;;;;;;4.00;0.50;;;;;;;;;;5114527;28;20027;-79
2022/08/08 13:38:40;;;;;;;2.53;0.68;;;;;;;;;;5114720;28;20019;-78
2022/08/08 13:41:06;;;;;;;3.90;0.60;;;;;;;;;;5115045;28;20028;-78
2022/08/08 13:43:33;;;;;;;2.20;0.65;;;;;;;;;;5114642;28;20016;-78
2022/08/08 13:46:09;;;;;;;5.85;0.60;;;;;;;;;;5115280;28;20152;-80
2022/08/08 13:48:45;;;;;;;1.98;0.55;;;;;;;;;;5114648;28;20474;-78
2022/08/08 13:51:11;;;;;;;4.97;0.70;;;;;;;;;;5114901;28;20031;-78
2022/08/08 13:53:39;;;;;;;3.10;0.57;;;;;;;;;;5114855;28;20092;-79
2022/08/08 13:56:07;;;;;;;3.58;0.60;;;;;;;;;;5115031;28;20027;-78
2022/08/08 13:58:34;;;;;;;2.67;0.60;;;;;;;;;;5114129;28;20369;-79
2022/08/08 14:01:16;;;;;;;1.75;0.60;;;;;;;;;;5114408;28;20027;-78
2022/08/08 14:04:02;;;;;;;2.65;0.50;;;;;;;;;;5114681;28;20099;-79
2022/08/08 14:06:29;;;;;;;1.73;0.60;;;;;;;;;;5096083;28;20044;-80
2022/08/08 14:08:56;;;;;;;4.35;0.57;;;;;;;;;;5112983;28;20500;-78
2022/08/08 14:11:23;;;;;;;2.55;0.63;;;;;;;;;;5114513;28;20069;-79
2022/08/08 14:13:50;;;;;;;3.33;0.45;;;;;;;;;;5113635;28;20026;-78
2022/08/08 14:16:16;;;;;;;3.00;0.82;;;;;;;;;;5113559;28;20035;-78
2022/08/08 14:19:01;;;;;;;2.35;0.70;;;;;;;;;;5114193;28;20053;-78
2022/08/08 14:21:40;;;;;;;1.98;0.80;;;;;;;;;;5095803;28;20381;-78
2022/08/08 14:24:09;;;;;;;7.72;1.60;;;;;;;;;;5103574;28;20098;-78
2022/08/08 14:26:41;;;;;;;2.83;0.70;;;;;;;;;;5112840;28;20034;-78
2022/08/08 14:29:18;;;;;;;3.00;0.60;;;;;;;;;;5114093;28;20034;-78
2022/08/08 14:31:48;;;;;;;2.88;0.82;;;;;;;;;;5113701;28;20027;-79
2022/08/08 14:34:14;;;;;;;2.33;0.60;;;;;;;;;;5113758;28;20034;-78
2022/08/08 14:36:40;;;;;;;3.60;1.20;;;;;;;;;;5114123;28;20016;-78
2022/08/08 14:39:06;;;;;;;4.45;0.90;;;;;;;;;;5114244;28;20022;-79
2022/08/08 14:41:42;;;;;;;5.25;0.70;;;;;;;;;;5114263;28;20020;-80
2022/08/08 14:44:09;;;;;;;1.20;0.70;;;;;;;;;;5114668;28;20099;-80
2022/08/08 14:46:35;;;;;;;4.72;0.75;;;;;;;;;;5113986;28;20023;-79
2022/08/08 14:49:03;;;;;;;5.63;0.93;;;;;;;;;;5114553;28;20027;-81
2022/08/08 14:51:38;;;;;;;3.78;0.82;;;;;;;;;;5114207;28;20120;-82
2022/08/08 14:54:05;;;;;;;5.45;0.80;;;;;;;;;;5097554;28;20065;-83
2022/08/08 14:56:31;;;;;;;4.90;0.88;;;;;;;;;;5102408;28;20023;-82
2022/08/08 14:58:58;;;;;;;5.55;1.48;;;;;;;;;;5113679;28;20073;-83
2022/08/08 15:01:29;;;;;;;2.85;0.80;;;;;;;;;;5105873;28;20016;-83
2022/08/08 15:03:55;;;;;;;2.00;1.00;;;;;;;;;;5110720;28;20054;-81
2022/08/08 15:06:21;;;;;;;6.47;0.82;;;;;;;;;;5113944;28;20027;-81
2022/08/08 15:08:47;;;;;;;2.92;0.70;;;;;;;;;;5107339;28;20024;-82